Station: Cape Borda

  Atmospheric Gas Attenuation - ITU Rec 676-11   --------------- db/100km ---------------
Date Time Temp RH % AH g/m3 Dew Point Wind Direction Speed kph Gust kph Barometer mB Rainfall Since 9am 24GHz 47GHz 76GHz 122GHz 134GHz 241GHz
15 00:00 10.3 95 9.1 9.5 20 24 1019 0.4 20.8 28.0 44.0 115.6 110.5 380.2
14 23:50 10.2 95 9.04 9.4 20 26 1018.9 0.4 20.7 27.9 43.8 115.0 109.8 377.7
14 23:40 10.3 95 9.1 9.5 20 26 1019 0.4 20.8 28.0 44.0 115.6 110.5 380.2
14 23:30 10.4 95 9.16 9.6 19 22 1019 0.4 21.0 28.1 44.2 116.1 111.2 382.7
14 23:20 10.6 95 9.27 9.8 24 26 1019.1 0.4 21.2 28.2 44.6 117.1 112.5 387.2
14 23:10 10.7 95 9.33 9.9 20 24 1019 0.4 21.3 28.3 44.8 117.6 113.2 389.7
14 23:00 10.7 95 9.33 9.9 20 24 1019 0.4 21.3 28.3 44.8 117.6 113.2 389.7
14 22:50 10.6 95 9.27 9.8 24 28 1019 0.4 21.2 28.2 44.6 117.1 112.5 387.2
14 22:40 10.7 95 9.33 9.9 30 32 1018.8 0.4 21.3 28.3 44.8 117.6 113.1 389.6
14 22:30 10.8 96 9.49 10.2 24 30 1018.8 0.4 21.6 28.5 45.4 119.3 115.3 397.1
14 22:20 10.7 95 9.33 9.9 24 28 1018.6 0.2 21.3 28.3 44.8 117.6 113.1 389.5
14 22:10 10.6 95 9.27 9.8 22 26 1018.5 0.2 21.2 28.2 44.5 117.0 112.4 387.0
14 22:00 10.7 95 9.33 9.9 28 35 1018.3 0.2 21.3 28.3 44.7 117.5 113.1 389.4
14 21:50 10.7 95 9.33 9.9 26 33 1018.2 0.2 21.3 28.3 44.7 117.5 113.1 389.4
14 21:40 10.9 96 9.55 10.3 28 32 1018.1 0.2 21.8 28.6 45.6 119.7 115.9 399.3
14 21:30 10.9 96 9.55 10.3 26 30 1018.1 0.2 21.8 28.6 45.6 119.7 115.9 399.3
14 21:20 10.9 96 9.55 10.3 20 24 1018.1 0.2 21.8 28.6 45.6 119.7 115.9 399.3
14 21:10 10.9 96 9.55 10.3 26 32 1018 0.2 21.8 28.6 45.6 119.7 115.9 399.3
14 21:00 11.1 96 9.67 10.5 26 33 1018 0.2 22.0 28.7 46.0 120.8 117.3 404.2
14 20:50 11.1 96 9.67 10.5 19 24 1018.1 0.2 22.0 28.7 46.0 120.8 117.3 404.3
14 20:40 11.1 96 9.67 10.5 24 30 1018 0 22.0 28.7 46.0 120.8 117.3 404.2
14 20:30 11.1 95 9.57 10.3 20 30 1017.8 0 21.8 28.5 45.5 119.6 115.9 399.2
14 20:20 11 95 9.51 10.2 22 28 1017.6 0 21.7 28.5 45.3 119.1 115.1 396.6
14 20:10 11 95 9.51 10.2 26 32 1017.4 0 21.7 28.4 45.3 119.0 115.1 396.6
14 20:00 11 95 9.51 10.2 24 30 1017.3 0 21.7 28.4 45.3 119.0 115.1 396.6
14 19:50 11 95 9.51 10.2 26 33 1017.1 0 21.7 28.4 45.3 119.0 115.1 396.5
14 19:40 10.9 95 9.45 10.1 28 32 1016.8 0 21.6 28.3 45.1 118.4 114.4 393.9
14 19:30 10.9 96 9.55 10.3 32 39 1016.6 0 21.8 28.5 45.5 119.6 115.8 398.8
14 19:20 11 96 9.61 10.4 24 32 1016.5 0 21.9 28.6 45.7 120.1 116.5 401.3
14 19:10 11.1 96 9.67 10.5 28 32 1016.6 0 22.0 28.7 45.9 120.6 117.2 403.8
14 19:00 11.1 96 9.67 10.5 28 33 1016.5 0 22.0 28.7 45.9 120.6 117.2 403.8
14 18:50 11.2 96 9.73 10.6 30 35 1016.6 0 22.1 28.7 46.1 121.2 117.9 406.3
14 18:40 11.3 96 9.79 10.7 28 33 1016.4 0 22.3 28.8 46.3 121.7 118.6 408.7
14 18:30 11.3 96 9.79 10.7 24 37 1016.1 0 22.3 28.8 46.3 121.7 118.5 408.6
14 18:20 11.3 96 9.79 10.7 26 30 1015.8 0 22.3 28.8 46.3 121.6 118.5 408.5
14 18:10 11.5 96 9.92 10.9 22 28 1015.7 0 22.5 28.9 46.7 122.8 120.1 413.9
14 18:00 11.6 95 9.88 10.8 26 30 1015.5 0 22.4 28.8 46.5 122.2 119.3 411.3
14 17:50 11.7 95 9.94 10.9 24 30 1015.3 0 22.6 28.9 46.7 122.7 120.0 413.7
14 17:40 11.8 95 10 11 28 35 1014.9 0 22.7 28.9 46.8 123.2 120.6 416.0
14 17:30 11.9 95 10.06 11.1 28 33 1014.7 0 22.8 29.0 47.0 123.7 121.3 418.4
14 17:20 12 94 10.02 11.1 32 39 1014.4 0 22.7 28.9 46.8 123.0 120.6 415.8
14 17:10 12.1 93 9.97 11 33 39 1014.1 0 22.6 28.8 46.5 122.3 119.7 412.6
14 17:00 12.3 93 10.1 11.2 30 39 1014.1 0 22.9 28.9 46.9 123.4 121.2 418.0
14 16:50 12.4 93 10.16 11.3 28 32 1013.9 0 23.0 29.0 47.1 124.0 121.9 420.4
14 16:40 12.4 92 10.05 11.1 32 43 1013.7 0 22.8 28.8 46.6 122.7 120.3 414.9
14 16:30 12.5 92 10.12 11.2 30 35 1013.6 0 22.9 28.9 46.9 123.3 121.1 417.8
14 16:20 12.8 91 10.19 11.4 30 33 1013.5 0 23.1 28.9 47.0 123.6 121.6 419.6
14 16:10 13 90 10.21 11.4 28 33 1013.3 0 23.1 28.8 46.9 123.5 121.6 419.4
14 16:00 13 89 10.09 11.2 28 39 1013.2 0 22.8 28.6 46.4 122.1 119.9 413.5
14 15:50 13.1 90 10.27 11.5 30 35 1013.1 0 23.2 28.9 47.1 124.0 122.2 421.8
14 15:40 13.1 91 10.38 11.7 28 32 1012.9 0 23.4 29.1 47.6 125.2 123.8 427.1
14 15:30 13.1 91 10.38 11.7 33 39 1012.8 0 23.4 29.1 47.6 125.2 123.8 427.1
14 15:20 13.4 91 10.58 12 28 32 1012.7 0 23.9 29.3 48.3 127.0 126.1 435.3
14 15:10 13.6 90 10.59 12 33 41 1012.3 0 23.9 29.3 48.2 126.8 125.9 434.6
14 15:00 13.6 91 10.71 12.2 32 48 1012.2 0 24.1 29.5 48.7 128.2 127.6 440.5
14 14:50 13.9 89 10.67 12.1 35 44 1011.9 0 24.0 29.3 48.3 127.2 126.5 436.7
14 14:40 14.1 90 10.92 12.5 32 37 1011.8 0 24.6 29.6 49.3 129.7 129.7 447.9
14 14:30 15.3 86 11.23 13 28 37 1011.6 0 25.1 29.8 49.8 131.2 132.0 456.2
14 14:20 15.3 84 10.97 12.6 32 37 1011.6 0 24.6 29.3 48.7 128.3 128.3 443.4
14 14:10 15.8 85 11.44 13.3 28 32 1011.5 0 25.6 30.0 50.4 132.8 134.1 463.6
14 14:00 16.2 81 11.17 12.9 24 32 1011.2 0 25.0 29.3 49.0 129.0 129.6 447.9
14 13:50 16 81 11.04 12.7 32 35 1011.3 0 24.7 29.2 48.6 127.9 128.1 442.7
14 13:40 15.8 84 11.31 13.1 26 32 1011.3 0 25.3 29.7 49.8 131.3 132.2 457.1
14 13:30 15.9 83 11.24 13 22 28 1011.2 0 25.1 29.6 49.5 130.3 131.1 453.0
14 13:20 15.7 81 10.84 12.5 17 20 1011.3 0 24.3 29.0 47.9 126.1 125.8 434.7
14 13:10 16 82 11.17 12.9 15 22 1011.3 0 25.0 29.4 49.1 129.3 129.9 449.1
14 13:00 15.8 82 11.04 12.7 15 20 1011.2 0 24.7 29.3 48.7 128.2 128.4 443.8
14 12:50 15.4 85 11.17 12.9 13 15 1011.5 0 25.0 29.6 49.5 130.4 131.0 452.6
14 12:40 15.9 84 11.38 13.2 11 13 1011.6 0 25.4 29.8 50.1 131.9 133.1 460.1
14 12:30 16.2 83 11.45 13.3 17 20 1011.7 0 25.6 29.8 50.2 132.2 133.6 461.7
14 12:20 15.6 85 11.3 13.1 13 15 1011.7 0 25.3 29.8 49.9 131.5 132.5 457.9
14 12:10 15.5 86 11.37 13.2 9 9 1011.9 0 25.4 30.0 50.3 132.5 133.7 462.1
14 12:00 15 87 11.16 12.9 13 15 1011.9 0 25.0 29.8 49.7 131.0 131.6 454.6
14 11:50 15.1 86 11.09 12.8 11 13 1012.2 0 24.9 29.6 49.4 130.0 130.4 450.7
14 11:40 15.3 87 11.36 13.1 6 7 1012.2 0 25.4 30.0 50.4 132.8 133.9 462.9
14 11:30 15.2 85 11.03 12.7 9 11 1012.3 0 24.7 29.5 49.1 129.2 129.4 447.2
14 11:20 15.7 86 11.51 13.4 11 13 1012.5 0 25.7 30.2 50.8 133.9 135.4 468.0
14 11:10 15.1 87 11.22 13 9 9 1012.6 0 25.1 29.9 50.0 131.6 132.3 457.3
14 11:00 14.9 84 10.71 12.2 9 11 1012.6 0 24.1 29.0 47.9 126.1 125.5 433.3
14 10:50 15.4 87 11.43 13.2 9 9 1012.6 0 25.6 30.1 50.7 133.5 134.8 465.9
14 10:40 15.9 92 12.46 14.6 13 15 1012.6 0 27.7 31.8 54.9 144.7 148.7 514.6
14 10:30 15.5 92 12.16 14.2 9 11 1012.7 0 27.1 31.4 53.8 141.9 145.1 502.0
14 10:20 15.2 94 12.2 14.2 7 9 1012.6 0 27.2 31.6 54.2 142.9 146.3 506.0
14 10:10 14.7 95 11.96 13.9 6 6 1012.7 0 26.8 31.3 53.5 141.0 143.7 497.0
14 10:00 14.7 96 12.09 14.1 7 9 1012.7 0 27.0 31.5 54.1 142.5 145.6 503.7
14 09:50 14.4 97 11.99 13.9 4 6 1012.5 0 26.8 31.5 53.8 141.9 144.7 500.5
14 09:40 13.6 97 11.42 13.1 7 9 1012.5 0 25.7 30.7 51.8 136.5 137.9 476.4
14 09:30 13.7 97 11.49 13.2 9 11 1012.4 0 25.8 30.8 52.1 137.2 138.7 479.3
14 09:20 13.7 97 11.49 13.2 11 11 1012.4 0 25.8 30.8 52.1 137.2 138.7 479.3
14 09:10 13.8 97 11.56 13.3 7 9 1012.4 0 26.0 30.9 52.3 137.8 139.5 482.3
14 09:00 13.8 97 11.56 13.3 9 9 1012.3 0 26.0 30.9 52.3 137.8 139.5 482.2
14 08:50 14 97 11.7 13.5 4 6 1012.3 18.4 26.2 31.1 52.8 139.1 141.2 488.1
14 08:40 14.1 97 11.77 13.6 6 6 1012.2 18.4 26.4 31.2 53.0 139.8 142.0 491.0
14 08:30 14.1 97 11.77 13.6 7 7 1012.3 18.4 26.4 31.2 53.0 139.8 142.0 491.1
14 08:20 14.2 97 11.84 13.7 9 9 1012.2 18.4 26.5 31.3 53.3 140.4 142.9 494.0
14 08:10 14.2 97 11.84 13.7 6 7 1012.2 18.4 26.5 31.3 53.3 140.4 142.9 494.0
14 08:00 14.2 97 11.84 13.7 7 11 1012.2 18.2 26.5 31.3 53.3 140.4 142.9 494.0
14 07:50 14.2 97 11.84 13.7 6 7 1012.2 18.2 26.5 31.3 53.3 140.4 142.9 494.0
14 07:40 14.2 97 11.84 13.7 9 11 1012 18.2 26.5 31.3 53.3 140.4 142.8 493.9
14 07:30 14.1 97 11.77 13.6 11 13 1012.2 18.2 26.4 31.2 53.0 139.8 142.0 491.0

Last Refresh: 15-Jun-2024 00:12:19

Bureau of Meteorology